Terminal Aerodrome Forecast
Issued by NWS

Current Version | Previous Version | Text Only | Print | Product List | Glossary On
Versions: 1 2 3 4 5 6 7 8 9 10 11 12 13 14 15 16 17 18 19 20 21 22 23 24 25 26 27 28 29 30 31 32 33 34 35 36
000
FTAK31 PAFA 272320
TAFAUN
TAF
PAUN 272320Z 2800/2824 31010KT P6SM FEW060
     FM280400 20012KT P6SM VCSH SCT025 OVC050
     FM281000 15016KT P6SM -SHRA BKN020 OVC050
     FM281500 12016G22KT 5SM -RA BKN010 OVC030=

USA.gov is the U.S. government's official web portal to all federal, state and local government web resources and services.